sensor_id;sensor_type;location;lat;lon;timestamp;pressure;altitude;pressure_sealevel;temperature;humidity
44765;BME280;30484;52.382;5.260;2022-08-21T00:02:14;101841.69;;;19.09;100.00
44765;BME280;30484;52.382;5.260;2022-08-21T00:04:44;101827.84;;;19.14;100.00
44765;BME280;30484;52.382;5.260;2022-08-21T00:07:24;101830.94;;;19.34;100.00
44765;BME280;30484;52.382;5.260;2022-08-21T00:09:53;101823.25;;;19.40;100.00
44765;BME280;30484;52.382;5.260;2022-08-21T00:12:26;101820.56;;;19.40;100.00
44765;BME280;30484;52.382;5.260;2022-08-21T00:14:55;101822.81;;;19.34;100.00
44765;BME280;30484;52.382;5.260;2022-08-21T00:17:25;101831.63;;;19.24;100.00
44765;BME280;30484;52.382;5.260;2022-08-21T00:19:54;101825.00;;;19.28;100.00
44765;BME280;30484;52.382;5.260;2022-08-21T00:22:24;101814.81;;;19.32;100.00
44765;BME280;30484;52.382;5.260;2022-08-21T00:24:55;101815.38;;;19.24;100.00
44765;BME280;30484;52.382;5.260;2022-08-21T00:27:24;101822.84;;;18.95;100.00
44765;BME280;30484;52.382;5.260;2022-08-21T00:29:53;101812.44;;;19.27;100.00
44765;BME280;30484;52.382;5.260;2022-08-21T00:32:25;101805.16;;;19.28;100.00
44765;BME280;30484;52.382;5.260;2022-08-21T00:34:55;101809.06;;;19.24;100.00
44765;BME280;30484;52.382;5.260;2022-08-21T00:37:25;101814.50;;;18.98;100.00
44765;BME280;30484;52.382;5.260;2022-08-21T00:39:56;101807.78;;;19.17;100.00
44765;BME280;30484;52.382;5.260;2022-08-21T00:42:28;101805.84;;;19.19;100.00
44765;BME280;30484;52.382;5.260;2022-08-21T00:44:58;101809.53;;;19.18;100.00
44765;BME280;30484;52.382;5.260;2022-08-21T00:47:30;101820.81;;;18.99;100.00
44765;BME280;30484;52.382;5.260;2022-08-21T00:50:00;101792.19;;;19.20;100.00
44765;BME280;30484;52.382;5.260;2022-08-21T00:52:33;101801.16;;;19.21;100.00
44765;BME280;30484;52.382;5.260;2022-08-21T00:55:06;101805.19;;;19.15;100.00
44765;BME280;30484;52.382;5.260;2022-08-21T00:57:40;101805.19;;;19.15;100.00
44765;BME280;30484;52.382;5.260;2022-08-21T01:00:19;101802.34;;;19.17;100.00
44765;BME280;30484;52.382;5.260;2022-08-21T01:02:54;101800.94;;;19.24;100.00
44765;BME280;30484;52.382;5.260;2022-08-21T01:05:27;101812.22;;;19.18;100.00
44765;BME280;30484;52.382;5.260;2022-08-21T01:07:57;101797.38;;;19.23;100.00
44765;BME280;30484;52.382;5.260;2022-08-21T01:10:26;101812.69;;;19.11;100.00
44765;BME280;30484;52.382;5.260;2022-08-21T01:12:57;101812.13;;;19.06;100.00
44765;BME280;30484;52.382;5.260;2022-08-21T01:15:38;101809.09;;;19.11;100.00
44765;BME280;30484;52.382;5.260;2022-08-21T01:18:11;101809.19;;;19.09;100.00
44765;BME280;30484;52.382;5.260;2022-08-21T01:20:56;101802.16;;;19.07;100.00
44765;BME280;30484;52.382;5.260;2022-08-21T01:23:25;101820.00;;;18.84;100.00
44765;BME280;30484;52.382;5.260;2022-08-21T01:25:54;101821.66;;;18.99;100.00
44765;BME280;30484;52.382;5.260;2022-08-21T01:28:23;101824.91;;;18.91;100.00
44765;BME280;30484;52.382;5.260;2022-08-21T01:30:54;101819.91;;;18.98;100.00
44765;BME280;30484;52.382;5.260;2022-08-21T01:33:24;101811.28;;;18.93;100.00
44765;BME280;30484;52.382;5.260;2022-08-21T01:35:53;101820.03;;;18.96;100.00
44765;BME280;30484;52.382;5.260;2022-08-21T01:38:24;101809.84;;;18.87;100.00
44765;BME280;30484;52.382;5.260;2022-08-21T01:40:55;101811.69;;;18.87;100.00
44765;BME280;30484;52.382;5.260;2022-08-21T01:43:25;101815.75;;;18.79;100.00
44765;BME280;30484;52.382;5.260;2022-08-21T01:46:05;101818.22;;;18.70;100.00
44765;BME280;30484;52.382;5.260;2022-08-21T01:48:35;101825.41;;;18.84;100.00
44765;BME280;30484;52.382;5.260;2022-08-21T01:51:05;101806.69;;;18.80;100.00
44765;BME280;30484;52.382;5.260;2022-08-21T01:53:37;101808.31;;;18.83;100.00
44765;BME280;30484;52.382;5.260;2022-08-21T01:56:10;101804.13;;;18.92;100.00
44765;BME280;30484;52.382;5.260;2022-08-21T01:58:41;101804.19;;;18.77;100.00
44765;BME280;30484;52.382;5.260;2022-08-21T02:01:11;101811.34;;;18.78;100.00
44765;BME280;30484;52.382;5.260;2022-08-21T02:03:41;101795.44;;;18.87;100.00
44765;BME280;30484;52.382;5.260;2022-08-21T02:06:14;101792.44;;;18.91;100.00
44765;BME280;30484;52.382;5.260;2022-08-21T02:08:47;101783.63;;;18.88;100.00
44765;BME280;30484;52.382;5.260;2022-08-21T02:11:18;101792.59;;;18.75;100.00
44765;BME280;30484;52.382;5.260;2022-08-21T02:13:47;101794.22;;;18.78;100.00
44765;BME280;30484;52.382;5.260;2022-08-21T02:16:16;101775.25;;;18.78;100.00
44765;BME280;30484;52.382;5.260;2022-08-21T02:18:46;101783.94;;;18.70;100.00
44765;BME280;30484;52.382;5.260;2022-08-21T02:21:15;101788.16;;;18.74;100.00
44765;BME280;30484;52.382;5.260;2022-08-21T02:23:45;101790.53;;;18.66;100.00
44765;BME280;30484;52.382;5.260;2022-08-21T02:26:15;101784.91;;;18.69;100.00
44765;BME280;30484;52.382;5.260;2022-08-21T02:28:44;101770.50;;;18.69;100.00
44765;BME280;30484;52.382;5.260;2022-08-21T02:31:15;101787.81;;;18.66;100.00
44765;BME280;30484;52.382;5.260;2022-08-21T02:33:43;101789.78;;;18.64;100.00
44765;BME280;30484;52.382;5.260;2022-08-21T02:36:13;101790.09;;;18.59;100.00
44765;BME280;30484;52.382;5.260;2022-08-21T02:38:43;101781.09;;;18.59;100.00
44765;BME280;30484;52.382;5.260;2022-08-21T02:41:17;101773.72;;;18.61;100.00
44765;BME280;30484;52.382;5.260;2022-08-21T02:43:46;101769.72;;;18.67;100.00
44765;BME280;30484;52.382;5.260;2022-08-21T02:46:19;101775.38;;;18.63;100.00
44765;BME280;30484;52.382;5.260;2022-08-21T02:48:48;101785.00;;;18.55;100.00
44765;BME280;30484;52.382;5.260;2022-08-21T02:51:20;101770.38;;;18.57;100.00
44765;BME280;30484;52.382;5.260;2022-08-21T02:53:50;101764.63;;;18.49;100.00
44765;BME280;30484;52.382;5.260;2022-08-21T02:56:21;101781.94;;;18.46;100.00
44765;BME280;30484;52.382;5.260;2022-08-21T02:58:54;101761.06;;;18.49;100.00
44765;BME280;30484;52.382;5.260;2022-08-21T03:01:23;101768.31;;;18.48;100.00
44765;BME280;30484;52.382;5.260;2022-08-21T03:03:56;101771.75;;;18.24;100.00
44765;BME280;30484;52.382;5.260;2022-08-21T03:06:25;101775.97;;;18.28;100.00
44765;BME280;30484;52.382;5.260;2022-08-21T03:08:54;101791.59;;;18.10;100.00
44765;BME280;30484;52.382;5.260;2022-08-21T03:11:26;101788.22;;;18.34;100.00
44765;BME280;30484;52.382;5.260;2022-08-21T03:13:56;101779.66;;;18.40;100.00
44765;BME280;30484;52.382;5.260;2022-08-21T03:16:26;101773.47;;;18.38;100.00
44765;BME280;30484;52.382;5.260;2022-08-21T03:19:01;101756.94;;;18.43;100.00
44765;BME280;30484;52.382;5.260;2022-08-21T03:21:33;101762.47;;;18.41;100.00
44765;BME280;30484;52.382;5.260;2022-08-21T03:24:03;101763.44;;;18.40;100.00
44765;BME280;30484;52.382;5.260;2022-08-21T03:26:35;101755.44;;;18.39;100.00
44765;BME280;30484;52.382;5.260;2022-08-21T03:29:08;101756.41;;;18.38;100.00
44765;BME280;30484;52.382;5.260;2022-08-21T03:31:37;101740.06;;;18.39;100.00
44765;BME280;30484;52.382;5.260;2022-08-21T03:34:07;101755.94;;;18.31;100.00
44765;BME280;30484;52.382;5.260;2022-08-21T03:36:35;101753.22;;;18.31;100.00
44765;BME280;30484;52.382;5.260;2022-08-21T03:39:04;101739.72;;;18.31;100.00
44765;BME280;30484;52.382;5.260;2022-08-21T03:41:36;101749.88;;;18.27;100.00
44765;BME280;30484;52.382;5.260;2022-08-21T03:44:08;101751.53;;;18.30;100.00
44765;BME280;30484;52.382;5.260;2022-08-21T03:46:36;101746.28;;;18.27;100.00
44765;BME280;30484;52.382;5.260;2022-08-21T03:49:07;101744.25;;;18.18;100.00
44765;BME280;30484;52.382;5.260;2022-08-21T03:51:36;101746.72;;;18.21;100.00
44765;BME280;30484;52.382;5.260;2022-08-21T03:54:05;101747.69;;;18.20;100.00
44765;BME280;30484;52.382;5.260;2022-08-21T03:56:35;101755.28;;;18.15;100.00
44765;BME280;30484;52.382;5.260;2022-08-21T03:59:04;101742.50;;;17.89;100.00
44765;BME280;30484;52.382;5.260;2022-08-21T04:01:34;101756.44;;;18.10;100.00
44765;BME280;30484;52.382;5.260;2022-08-21T04:04:04;101742.72;;;18.14;100.00
44765;BME280;30484;52.382;5.260;2022-08-21T04:06:33;101749.19;;;18.11;100.00
44765;BME280;30484;52.382;5.260;2022-08-21T04:09:05;101748.13;;;18.14;100.00
44765;BME280;30484;52.382;5.260;2022-08-21T04:11:35;101747.38;;;18.11;100.00
44765;BME280;30484;52.382;5.260;2022-08-21T04:14:06;101747.75;;;18.05;100.00
44765;BME280;30484;52.382;5.260;2022-08-21T04:16:36;101757.38;;;17.97;100.00
44765;BME280;30484;52.382;5.260;2022-08-21T04:19:07;101770.34;;;17.91;100.00
44765;BME280;30484;52.382;5.260;2022-08-21T04:21:36;101770.06;;;17.82;100.00
44765;BME280;30484;52.382;5.260;2022-08-21T04:24:08;101780.59;;;17.72;100.00
44765;BME280;30484;52.382;5.260;2022-08-21T04:26:40;101773.91;;;17.92;100.00
44765;BME280;30484;52.382;5.260;2022-08-21T04:29:09;101764.72;;;17.94;100.00
44765;BME280;30484;52.382;5.260;2022-08-21T04:31:41;101783.34;;;17.85;100.00
44765;BME280;30484;52.382;5.260;2022-08-21T04:34:11;101773.69;;;17.95;100.00
44765;BME280;30484;52.382;5.260;2022-08-21T04:36:42;101782.19;;;17.89;100.00
44765;BME280;30484;52.382;5.260;2022-08-21T04:39:11;101774.91;;;18.04;100.00
44765;BME280;30484;52.382;5.260;2022-08-21T04:41:41;101781.69;;;17.97;100.00
44765;BME280;30484;52.382;5.260;2022-08-21T04:44:12;101775.91;;;18.03;100.00
44765;BME280;30484;52.382;5.260;2022-08-21T04:46:42;101792.25;;;17.72;100.00
44765;BME280;30484;52.382;5.260;2022-08-21T04:49:11;101796.91;;;17.70;100.00
44765;BME280;30484;52.382;5.260;2022-08-21T04:51:39;101805.94;;;17.84;100.00
44765;BME280;30484;52.382;5.260;2022-08-21T04:54:13;101802.28;;;17.99;100.00
44765;BME280;30484;52.382;5.260;2022-08-21T04:56:49;101792.63;;;17.95;100.00
44765;BME280;30484;52.382;5.260;2022-08-21T04:59:24;101788.91;;;18.10;100.00
44765;BME280;30484;52.382;5.260;2022-08-21T05:01:54;101805.69;;;18.16;100.00
44765;BME280;30484;52.382;5.260;2022-08-21T05:04:27;101795.63;;;18.18;100.00
44765;BME280;30484;52.382;5.260;2022-08-21T05:07:06;101797.78;;;18.25;100.00
44765;BME280;30484;52.382;5.260;2022-08-21T05:09:38;101793.53;;;18.08;100.00
44765;BME280;30484;52.382;5.260;2022-08-21T05:12:10;101796.78;;;18.14;100.00
44765;BME280;30484;52.382;5.260;2022-08-21T05:14:39;101804.19;;;18.24;100.00
44765;BME280;30484;52.382;5.260;2022-08-21T05:17:09;101791.47;;;18.39;100.00
44765;BME280;30484;52.382;5.260;2022-08-21T05:19:40;101797.69;;;18.27;100.00
44765;BME280;30484;52.382;5.260;2022-08-21T05:22:09;101796.84;;;18.26;100.00
44765;BME280;30484;52.382;5.260;2022-08-21T05:24:39;101799.69;;;18.38;100.00
44765;BME280;30484;52.382;5.260;2022-08-21T05:27:10;101807.63;;;18.14;100.00
44765;BME280;30484;52.382;5.260;2022-08-21T05:29:44;101805.63;;;18.30;100.00
44765;BME280;30484;52.382;5.260;2022-08-21T05:32:14;101808.44;;;18.28;100.00
44765;BME280;30484;52.382;5.260;2022-08-21T05:34:43;101806.22;;;18.61;100.00
44765;BME280;30484;52.382;5.260;2022-08-21T05:37:12;101812.56;;;18.34;100.00
44765;BME280;30484;52.382;5.260;2022-08-21T05:39:43;101816.91;;;18.50;100.00
44765;BME280;30484;52.382;5.260;2022-08-21T05:42:33;101812.75;;;18.84;100.00
44765;BME280;30484;52.382;5.260;2022-08-21T05:45:03;101816.47;;;18.96;100.00
44765;BME280;30484;52.382;5.260;2022-08-21T05:47:32;101814.84;;;19.06;100.00
44765;BME280;30484;52.382;5.260;2022-08-21T05:50:03;101796.53;;;19.23;100.00
44765;BME280;30484;52.382;5.260;2022-08-21T05:52:32;101804.19;;;19.29;100.00
44765;BME280;30484;52.382;5.260;2022-08-21T05:55:01;101804.56;;;19.11;100.00
44765;BME280;30484;52.382;5.260;2022-08-21T05:57:33;101806.25;;;19.12;100.00
44765;BME280;30484;52.382;5.260;2022-08-21T06:00:05;101808.97;;;19.38;100.00
44765;BME280;30484;52.382;5.260;2022-08-21T06:02:40;101800.00;;;18.99;100.00
44765;BME280;30484;52.382;5.260;2022-08-21T06:05:10;101789.75;;;19.54;100.00
44765;BME280;30484;52.382;5.260;2022-08-21T06:07:43;101782.81;;;19.87;100.00
44765;BME280;30484;52.382;5.260;2022-08-21T06:10:13;101788.88;;;19.91;100.00
44765;BME280;30484;52.382;5.260;2022-08-21T06:12:44;101784.03;;;20.07;100.00
44765;BME280;30484;52.382;5.260;2022-08-21T06:15:13;101792.41;;;20.04;100.00
44765;BME280;30484;52.382;5.260;2022-08-21T06:17:43;101795.06;;;20.17;100.00
44765;BME280;30484;52.382;5.260;2022-08-21T06:20:13;101786.84;;;20.30;100.00
44765;BME280;30484;52.382;5.260;2022-08-21T06:22:42;101787.41;;;20.22;100.00
44765;BME280;30484;52.382;5.260;2022-08-21T06:25:11;101785.56;;;20.58;100.00
44765;BME280;30484;52.382;5.260;2022-08-21T06:27:40;101784.75;;;20.69;100.00
44765;BME280;30484;52.382;5.260;2022-08-21T06:30:13;101782.97;;;20.57;100.00
44765;BME280;30484;52.382;5.260;2022-08-21T06:32:42;101774.41;;;20.85;100.00
44765;BME280;30484;52.382;5.260;2022-08-21T06:35:12;101782.25;;;20.66;100.00
44765;BME280;30484;52.382;5.260;2022-08-21T06:37:41;101778.03;;;20.62;100.00
44765;BME280;30484;52.382;5.260;2022-08-21T06:40:11;101782.44;;;20.98;100.00
44765;BME280;30484;52.382;5.260;2022-08-21T06:42:40;101787.25;;;21.17;100.00
44765;BME280;30484;52.382;5.260;2022-08-21T06:45:11;101779.84;;;21.42;100.00
44765;BME280;30484;52.382;5.260;2022-08-21T06:47:40;101772.44;;;21.44;100.00
44765;BME280;30484;52.382;5.260;2022-08-21T06:50:10;101781.09;;;21.61;100.00
44765;BME280;30484;52.382;5.260;2022-08-21T06:52:39;101779.38;;;21.60;100.00
44765;BME280;30484;52.382;5.260;2022-08-21T06:55:10;101772.09;;;21.93;100.00
44765;BME280;30484;52.382;5.260;2022-08-21T06:57:50;101767.47;;;21.72;100.00
44765;BME280;30484;52.382;5.260;2022-08-21T07:00:22;101772.09;;;21.93;100.00
44765;BME280;30484;52.382;5.260;2022-08-21T07:02:55;101767.38;;;21.95;100.00
44765;BME280;30484;52.382;5.260;2022-08-21T07:05:32;101770.66;;;21.77;100.00
44765;BME280;30484;52.382;5.260;2022-08-21T07:08:02;101780.28;;;21.81;100.00
44765;BME280;30484;52.382;5.260;2022-08-21T07:10:31;101768.75;;;22.33;100.00
44765;BME280;30484;52.382;5.260;2022-08-21T07:13:00;101765.75;;;22.57;100.00
44765;BME280;30484;52.382;5.260;2022-08-21T07:15:31;101762.91;;;22.37;100.00
44765;BME280;30484;52.382;5.260;2022-08-21T07:18:00;101776.44;;;21.95;100.00
44765;BME280;30484;52.382;5.260;2022-08-21T07:20:30;101761.72;;;22.19;100.00
44765;BME280;30484;52.382;5.260;2022-08-21T07:23:03;101758.03;;;22.83;100.00
44765;BME280;30484;52.382;5.260;2022-08-21T07:25:34;101765.03;;;22.76;100.00
44765;BME280;30484;52.382;5.260;2022-08-21T07:28:04;101761.13;;;23.00;100.00
44765;BME280;30484;52.382;5.260;2022-08-21T07:30:34;101756.81;;;22.97;100.00
44765;BME280;30484;52.382;5.260;2022-08-21T07:33:04;101756.41;;;23.02;100.00
44765;BME280;30484;52.382;5.260;2022-08-21T07:35:34;101757.44;;;23.10;100.00
44765;BME280;30484;52.382;5.260;2022-08-21T07:38:04;101755.72;;;23.09;100.00
44765;BME280;30484;52.382;5.260;2022-08-21T07:40:33;101751.13;;;23.41;100.00
44765;BME280;30484;52.382;5.260;2022-08-21T07:43:02;101748.44;;;23.60;100.00
44765;BME280;30484;52.382;5.260;2022-08-21T07:45:31;101754.69;;;23.92;100.00
44765;BME280;30484;52.382;5.260;2022-08-21T07:48:03;101754.91;;;23.59;100.00
44765;BME280;30484;52.382;5.260;2022-08-21T07:50:33;101757.41;;;23.92;100.00
44765;BME280;30484;52.382;5.260;2022-08-21T07:53:03;101758.72;;;23.98;100.00
44765;BME280;30484;52.382;5.260;2022-08-21T07:55:32;101755.84;;;23.89;100.00
44765;BME280;30484;52.382;5.260;2022-08-21T07:58:01;101744.19;;;24.07;100.00
44765;BME280;30484;52.382;5.260;2022-08-21T08:00:30;101753.81;;;24.01;100.00
44765;BME280;30484;52.382;5.260;2022-08-21T08:03:01;101745.91;;;23.88;100.00
44765;BME280;30484;52.382;5.260;2022-08-21T08:05:32;101750.78;;;24.34;100.00
44765;BME280;30484;52.382;5.260;2022-08-21T08:08:04;101740.38;;;24.57;100.00
44765;BME280;30484;52.382;5.260;2022-08-21T08:10:34;101731.69;;;24.34;100.00
44765;BME280;30484;52.382;5.260;2022-08-21T08:13:03;101726.72;;;24.57;100.00
44765;BME280;30484;52.382;5.260;2022-08-21T08:15:40;101730.13;;;24.88;100.00
44765;BME280;30484;52.382;5.260;2022-08-21T08:18:15;101725.72;;;24.58;100.00
44765;BME280;30484;52.382;5.260;2022-08-21T08:20:47;101732.81;;;24.60;100.00
44765;BME280;30484;52.382;5.260;2022-08-21T08:23:16;101722.78;;;25.16;100.00
44765;BME280;30484;52.382;5.260;2022-08-21T08:25:45;101732.81;;;24.98;100.00
44765;BME280;30484;52.382;5.260;2022-08-21T08:28:14;101719.91;;;24.90;100.00
44765;BME280;30484;52.382;5.260;2022-08-21T08:31:12;101714.13;;;24.93;100.00
44765;BME280;30484;52.382;5.260;2022-08-21T08:34:10;101714.06;;;25.13;100.00
44765;BME280;30484;52.382;5.260;2022-08-21T08:36:49;101707.91;;;25.29;100.00
44765;BME280;30484;52.382;5.260;2022-08-21T08:39:20;101711.47;;;25.11;100.00
44765;BME280;30484;52.382;5.260;2022-08-21T08:42:01;101710.72;;;25.47;100.00
44765;BME280;30484;52.382;5.260;2022-08-21T08:45:00;101711.56;;;25.47;100.00
44765;BME280;30484;52.382;5.260;2022-08-21T08:47:38;101708.69;;;25.49;100.00
44765;BME280;30484;52.382;5.260;2022-08-21T08:50:15;101716.47;;;25.44;100.00
44765;BME280;30484;52.382;5.260;2022-08-21T08:52:49;101700.41;;;26.13;100.00
44765;BME280;30484;52.382;5.260;2022-08-21T08:55:28;101701.97;;;25.61;100.00
44765;BME280;30484;52.382;5.260;2022-08-21T08:57:58;101698.94;;;26.00;100.00
44765;BME280;30484;52.382;5.260;2022-08-21T09:00:31;101697.69;;;26.39;100.00
44765;BME280;30484;52.382;5.260;2022-08-21T09:03:03;101691.22;;;26.22;100.00
44765;BME280;30484;52.382;5.260;2022-08-21T09:05:47;101699.66;;;26.03;100.00
44765;BME280;30484;52.382;5.260;2022-08-21T09:08:44;101681.09;;;26.67;100.00
44765;BME280;30484;52.382;5.260;2022-08-21T09:11:26;101684.69;;;26.67;100.00
44765;BME280;30484;52.382;5.260;2022-08-21T09:14:09;101688.03;;;26.53;100.00
44765;BME280;30484;52.382;5.260;2022-08-21T09:16:56;101686.91;;;26.38;100.00
44765;BME280;30484;52.382;5.260;2022-08-21T09:19:52;101680.34;;;26.83;100.00
44765;BME280;30484;52.382;5.260;2022-08-21T09:22:39;101677.91;;;26.53;100.00
44765;BME280;30484;52.382;5.260;2022-08-21T09:25:21;101687.19;;;26.52;100.00
44765;BME280;30484;52.382;5.260;2022-08-21T09:27:53;101684.91;;;27.09;100.00
44765;BME280;30484;52.382;5.260;2022-08-21T09:30:28;101683.28;;;27.41;100.00
44765;BME280;30484;52.382;5.260;2022-08-21T09:32:59;101679.59;;;27.91;100.00
44765;BME280;30484;52.382;5.260;2022-08-21T09:35:28;101685.81;;;28.01;100.00
44765;BME280;30484;52.382;5.260;2022-08-21T09:38:09;101689.53;;;27.67;100.00
44765;BME280;30484;52.382;5.260;2022-08-21T09:40:43;101682.84;;;27.95;100.00
44765;BME280;30484;52.382;5.260;2022-08-21T09:43:20;101687.34;;;28.04;100.00
44765;BME280;30484;52.382;5.260;2022-08-21T09:46:05;101688.50;;;27.93;100.00
44765;BME280;30484;52.382;5.260;2022-08-21T09:48:45;101687.16;;;27.72;100.00
44765;BME280;30484;52.382;5.260;2022-08-21T09:51:18;101686.13;;;27.73;100.00
44765;BME280;30484;52.382;5.260;2022-08-21T09:54:10;101682.66;;;27.71;100.00
44765;BME280;30484;52.382;5.260;2022-08-21T09:56:54;101680.44;;;27.83;100.00
44765;BME280;30484;52.382;5.260;2022-08-21T09:59:49;101678.19;;;27.46;100.00
44765;BME280;30484;52.382;5.260;2022-08-21T10:02:28;101684.06;;;27.76;100.00
44765;BME280;30484;52.382;5.260;2022-08-21T10:05:01;101684.91;;;27.60;100.00
44765;BME280;30484;52.382;5.260;2022-08-21T10:07:45;101672.03;;;27.93;100.00
44765;BME280;30484;52.382;5.260;2022-08-21T10:10:22;101672.41;;;27.73;100.00
44765;BME280;30484;52.382;5.260;2022-08-21T10:13:12;101677.53;;;27.93;100.00
44765;BME280;30484;52.382;5.260;2022-08-21T10:16:14;101684.25;;;27.90;100.00
44765;BME280;30484;52.382;5.260;2022-08-21T10:19:12;101681.63;;;27.56;100.00
44765;BME280;30484;52.382;5.260;2022-08-21T10:21:56;101669.19;;;27.27;100.00
44765;BME280;30484;52.382;5.260;2022-08-21T10:24:33;101675.31;;;28.13;100.00
44765;BME280;30484;52.382;5.260;2022-08-21T10:27:18;101677.91;;;28.06;100.00
44765;BME280;30484;52.382;5.260;2022-08-21T10:30:03;101671.69;;;27.71;100.00
44765;BME280;30484;52.382;5.260;2022-08-21T10:32:54;101664.34;;;28.05;100.00
44765;BME280;30484;52.382;5.260;2022-08-21T10:35:40;101668.22;;;28.52;100.00
44765;BME280;30484;52.382;5.260;2022-08-21T10:39:00;101674.06;;;28.65;100.00
44765;BME280;30484;52.382;5.260;2022-08-21T10:45:30;101671.19;;;28.98;100.00
44765;BME280;30484;52.382;5.260;2022-08-21T10:48:06;101662.31;;;28.80;100.00
44765;BME280;30484;52.382;5.260;2022-08-21T10:50:42;101664.72;;;29.14;100.00
44765;BME280;30484;52.382;5.260;2022-08-21T10:53:39;101661.88;;;28.43;100.00
44765;BME280;30484;52.382;5.260;2022-08-21T10:56:17;101656.09;;;27.88;100.00
44765;BME280;30484;52.382;5.260;2022-08-21T10:58:59;101660.91;;;28.92;100.00
44765;BME280;30484;52.382;5.260;2022-08-21T11:01:45;101656.97;;;29.26;100.00
44765;BME280;30484;52.382;5.260;2022-08-21T11:04:20;101649.91;;;29.55;100.00
44765;BME280;30484;52.382;5.260;2022-08-21T11:07:03;101655.06;;;29.18;100.00
44765;BME280;30484;52.382;5.260;2022-08-21T11:09:47;101647.09;;;29.86;100.00
44765;BME280;30484;52.382;5.260;2022-08-21T11:12:24;101648.16;;;29.77;100.00
44765;BME280;30484;52.382;5.260;2022-08-21T11:14:58;101653.59;;;30.08;100.00
44765;BME280;30484;52.382;5.260;2022-08-21T11:17:35;101649.66;;;29.65;100.00
44765;BME280;30484;52.382;5.260;2022-08-21T11:20:13;101650.03;;;30.38;100.00
44765;BME280;30484;52.382;5.260;2022-08-21T11:22:50;101640.25;;;30.65;100.00
44765;BME280;30484;52.382;5.260;2022-08-21T11:25:35;101642.22;;;30.26;100.00
44765;BME280;30484;52.382;5.260;2022-08-21T11:28:10;101653.97;;;30.73;100.00
44765;BME280;30484;52.382;5.260;2022-08-21T11:30:52;101649.19;;;30.97;100.00
44765;BME280;30484;52.382;5.260;2022-08-21T11:33:41;101657.31;;;30.16;100.00
44765;BME280;30484;52.382;5.260;2022-08-21T11:36:29;101656.50;;;29.92;100.00
44765;BME280;30484;52.382;5.260;2022-08-21T11:39:09;101664.69;;;29.77;100.00
44765;BME280;30484;52.382;5.260;2022-08-21T11:41:47;101660.22;;;30.37;100.00
44765;BME280;30484;52.382;5.260;2022-08-21T11:44:37;101657.22;;;30.24;100.00
44765;BME280;30484;52.382;5.260;2022-08-21T11:47:18;101659.34;;;30.96;100.00
44765;BME280;30484;52.382;5.260;2022-08-21T11:50:06;101660.41;;;30.80;100.00
44765;BME280;30484;52.382;5.260;2022-08-21T11:53:07;101658.69;;;30.94;100.00
44765;BME280;30484;52.382;5.260;2022-08-21T11:55:43;101663.81;;;30.97;100.00
44765;BME280;30484;52.382;5.260;2022-08-21T11:58:19;101669.34;;;30.53;100.00
44765;BME280;30484;52.382;5.260;2022-08-21T12:00:53;101669.56;;;30.66;100.00
44765;BME280;30484;52.382;5.260;2022-08-21T12:03:26;101660.78;;;31.07;100.00
44765;BME280;30484;52.382;5.260;2022-08-21T12:06:00;101664.38;;;31.23;100.00
44765;BME280;30484;52.382;5.260;2022-08-21T12:08:32;101658.69;;;31.46;100.00
44765;BME280;30484;52.382;5.260;2022-08-21T12:11:05;101658.28;;;31.12;100.00
44765;BME280;30484;52.382;5.260;2022-08-21T12:13:37;101663.28;;;31.02;100.00
44765;BME280;30484;52.382;5.260;2022-08-21T12:16:12;101659.66;;;30.72;100.00
44765;BME280;30484;52.382;5.260;2022-08-21T12:18:41;101666.09;;;30.94;100.00
44765;BME280;30484;52.382;5.260;2022-08-21T12:21:26;101663.28;;;31.39;100.00
44765;BME280;30484;52.382;5.260;2022-08-21T12:24:05;101656.84;;;31.53;100.00
44765;BME280;30484;52.382;5.260;2022-08-21T12:26:50;101668.09;;;31.15;100.00
44765;BME280;30484;52.382;5.260;2022-08-21T12:29:23;101668.50;;;30.52;100.00
44765;BME280;30484;52.382;5.260;2022-08-21T12:32:02;101672.56;;;31.53;100.00
44765;BME280;30484;52.382;5.260;2022-08-21T12:34:36;101671.28;;;31.33;100.00
44765;BME280;30484;52.382;5.260;2022-08-21T12:37:15;101662.66;;;31.58;100.00
44765;BME280;30484;52.382;5.260;2022-08-21T12:39:51;101678.97;;;31.75;100.00
44765;BME280;30484;52.382;5.260;2022-08-21T12:42:23;101679.41;;;31.20;100.00
44765;BME280;30484;52.382;5.260;2022-08-21T12:44:58;101676.84;;;31.19;100.00
44765;BME280;30484;52.382;5.260;2022-08-21T12:47:34;101675.50;;;30.99;100.00
44765;BME280;30484;52.382;5.260;2022-08-21T12:50:09;101677.41;;;31.14;100.00
44765;BME280;30484;52.382;5.260;2022-08-21T12:52:51;101684.97;;;30.90;100.00
44765;BME280;30484;52.382;5.260;2022-08-21T12:55:27;101691.88;;;30.41;100.00
44765;BME280;30484;52.382;5.260;2022-08-21T12:57:56;101692.94;;;31.00;100.00
44765;BME280;30484;52.382;5.260;2022-08-21T13:00:28;101682.53;;;31.54;100.00
44765;BME280;30484;52.382;5.260;2022-08-21T13:02:57;101683.69;;;31.81;100.00
44765;BME280;30484;52.382;5.260;2022-08-21T13:05:35;101684.41;;;32.11;100.00
44765;BME280;30484;52.382;5.260;2022-08-21T13:08:09;101680.66;;;32.19;100.00
44765;BME280;30484;52.382;5.260;2022-08-21T13:10:40;101687.44;;;32.16;100.00
44765;BME280;30484;52.382;5.260;2022-08-21T13:13:16;101687.56;;;32.65;100.00
44765;BME280;30484;52.382;5.260;2022-08-21T13:15:57;101691.16;;;32.94;95.50
44765;BME280;30484;52.382;5.260;2022-08-21T13:18:32;101677.59;;;32.35;98.97
44765;BME280;30484;52.382;5.260;2022-08-21T13:21:07;101688.84;;;32.62;97.42